aviador You're here:

KELN Decoded Metar

ELLENSBURG in WA, USA
Report Time2018-06-24 21:53:00
UTC Time2018-06-24 22:41:34
Flight Rules vfr VFR
Wind170° at 07 kt
W.Decomp.*RWY 11: 5.0 kt HW 4.9 kt RCW
RWY 07: 0.7 kt HW 7.0 kt RCW
W.Rank170° ranks 26
Current wind is above 170° avg. (5.1)
Visibility9999 m
Phenomena:N/A
Clouds:N/A
Expected CloudBase > 10,400 ft AGL from Temp-Dew spread
CeilingNone
Temp32°C (ISA +20)
Dew Point06°C (20% RH)
Heat Index30.0°C
AAT28.6°C
QNH1013 hPa
Density Alt4,150 ft
Elevation1,703 ft
Report Wrong Elevation
Raw Report
KELN 242153Z AUTO 17007KT 10SM CLR 32/06 A2992 RMK AO2 SLP120
T03220061=

Extra information for KELN:More info

Metar Taf Metar & Taf Last 4 Metars F.Rules Stats Wind Profile Meteogram Temp Stats Airport Information Weather charts Add Link Nearby VenuesMetar ALERT Operation Metar Decoded Social comments

AIRNAV info for KELN